Time;durP1;ratioP1;P1;durP2;ratioP2;P2;SDS_P1;SDS_P2;PMS_P1;PMS_P2;Temp;Humidity;BMP_temperature;BMP_pressure;BME280_temperature;BME280_humidity;BME280_pressure;Samples;Min_cycle;Max_cycle;Signal;HPM_P1;HPM_P2
2022/04/30 00:00:48;;;;;;;;;;;;;;;9.54;58.26;102349.03;4406151;32;19996;-70
2022/04/30 00:03:14;;;;;;;;;;;;;;;9.58;57.95;102344.22;4403287;32;20032;-70
2022/04/30 00:05:39;;;;;;;;;;;;;;;9.59;57.77;102347.88;4405027;32;19999;-70
2022/04/30 00:08:05;;;;;;;;;;;;;;;9.51;58.14;102346.22;4405888;32;21031;-71
2022/04/30 00:10:37;;;;;;;;;;;;;;;9.51;58.12;102344.22;4403593;32;20339;-70
2022/04/30 00:13:03;;;;;;;;;;;;;;;9.53;58.25;102341.00;4404939;32;19980;-70
2022/04/30 00:15:29;;;;;;;;;;;;;;;9.43;58.53;102345.37;4405141;32;19961;-70
2022/04/30 00:17:54;;;;;;;;;;;;;;;9.36;58.65;102344.53;4406757;32;20035;-70
2022/04/30 00:20:20;;;;;;;;;;;;;;;9.34;58.75;102341.28;4405438;32;19971;-70
2022/04/30 00:22:46;;;;;;;;;;;;;;;9.33;58.34;102339.69;4403433;32;20020;-70
2022/04/30 00:25:14;;;;;;;;;;;;;;;9.19;59.28;102340.41;4405308;32;20023;-70
2022/04/30 00:27:39;;;;;;;;;;;;;;;9.17;59.04;102331.53;4404664;32;20015;-70
2022/04/30 00:30:05;;;;;;;;;;;;;;;9.08;59.42;102330.28;4404323;32;20061;-70
2022/04/30 00:32:32;;;;;;;;;;;;;;;9.17;58.81;102323.12;4404316;32;19961;-70
2022/04/30 00:34:58;;;;;;;;;;;;;;;9.16;58.97;102324.31;4402890;32;20021;-70
2022/04/30 00:37:23;;;;;;;;;;;;;;;9.09;59.24;102335.50;4407763;32;20250;-70
2022/04/30 00:39:49;;;;;;;;;;;;;;;8.96;59.47;102330.59;4404723;32;20029;-70
2022/04/30 00:42:15;;;;;;;;;;;;;;;8.95;59.77;102332.59;4404266;32;20038;-70
2022/04/30 00:44:43;;;;;;;;;;;;;;;9.02;59.40;102329.81;4405465;32;19961;-70
2022/04/30 00:47:14;;;;;;;;;;;;;;;8.97;59.56;102333.00;4404392;32;19992;-69
2022/04/30 00:49:40;;;;;;;;;;;;;;;8.89;60.01;102327.72;4403510;32;19993;-70
2022/04/30 00:52:06;;;;;;;;;;;;;;;9.04;59.65;102315.38;4405991;32;20389;-70
2022/04/30 00:54:33;;;;;;;;;;;;;;;8.76;59.63;102317.97;4403754;32;20377;-70
2022/04/30 00:57:01;;;;;;;;;;;;;;;8.71;60.26;102318.34;4405625;32;20393;-70
2022/04/30 00:59:27;;;;;;;;;;;;;;;8.43;61.54;102315.28;4403534;32;19977;-70
2022/04/30 01:01:57;;;;;;;;;;;;;;;8.46;61.46;102314.47;4407251;32;20395;-70
2022/04/30 01:04:23;;;;;;;;;;;;;;;8.47;61.30;102314.09;4407716;32;20379;-70
2022/04/30 01:06:50;;;;;;;;;;;;;;;8.40;61.40;102308.44;4403439;32;20012;-69
2022/04/30 01:09:18;;;;;;;;;;;;;;;8.33;61.61;102307.56;4404374;32;19954;-70
2022/04/30 01:11:44;;;;;;;;;;;;;;;8.29;61.60;102312.31;4407543;32;19950;-69
2022/04/30 01:14:10;;;;;;;;;;;;;;;8.40;61.32;102314.03;4404451;32;19969;-70
2022/04/30 01:16:36;;;;;;;;;;;;;;;8.30;61.41;102309.13;4405272;32;19994;-70
2022/04/30 01:19:02;;;;;;;;;;;;;;;8.38;61.44;102312.81;4406476;32;20009;-69
2022/04/30 01:21:28;;;;;;;;;;;;;;;8.28;61.85;102297.47;4402758;32;20016;-69
2022/04/30 01:23:54;;;;;;;;;;;;;;;8.28;61.26;102294.69;4408075;32;20008;-69
2022/04/30 01:26:22;;;;;;;;;;;;;;;8.22;61.55;102292.59;4404303;32;19966;-69
2022/04/30 01:28:49;;;;;;;;;;;;;;;8.23;61.76;102297.84;4403815;32;19989;-69
2022/04/30 01:39:33;;;;;;;;;;;;;;;8.10;62.42;102293.66;4406008;32;19957;-70
2022/04/30 01:42:03;;;;;;;;;;;;;;;8.17;62.64;102285.34;4406739;32;19957;-70
2022/04/30 01:44:29;;;;;;;;;;;;;;;8.25;62.24;102289.84;4405181;32;19953;-70
2022/04/30 01:46:55;;;;;;;;;;;;;;;8.19;62.51;102282.94;4403470;32;20429;-70
2022/04/30 01:49:21;;;;;;;;;;;;;;;8.04;63.18;102289.62;4406117;32;20108;-70
2022/04/30 01:51:47;;;;;;;;;;;;;;;8.03;62.95;102288.78;4403251;32;19981;-70
2022/04/30 01:54:13;;;;;;;;;;;;;;;8.06;62.60;102290.00;4404389;32;20010;-70
2022/04/30 01:56:39;;;;;;;;;;;;;;;8.00;62.70;102277.53;4404654;32;19950;-70
2022/04/30 01:59:04;;;;;;;;;;;;;;;8.04;62.40;102273.56;4404892;32;20024;-69
2022/04/30 02:01:32;;;;;;;;;;;;;;;7.95;62.62;102270.28;4408477;32;19957;-69
2022/04/30 02:03:59;;;;;;;;;;;;;;;7.90;62.88;102267.84;4404484;32;20005;-69
2022/04/30 02:06:24;;;;;;;;;;;;;;;7.99;62.70;102267.50;4408029;32;19989;-71
2022/04/30 02:08:50;;;;;;;;;;;;;;;7.90;62.81;102264.22;4406640;32;20394;-69
2022/04/30 02:11:16;;;;;;;;;;;;;;;7.86;62.86;102269.75;4408046;32;20011;-70
2022/04/30 02:13:51;;;;;;;;;;;;;;;8.17;62.06;102268.50;4407014;32;19961;-70
2022/04/30 02:16:18;;;;;;;;;;;;;;;8.00;62.58;102260.72;4402221;32;19968;-70
2022/04/30 02:18:43;;;;;;;;;;;;;;;7.98;62.70;102269.50;4406304;32;20016;-70
2022/04/30 02:21:09;;;;;;;;;;;;;;;7.88;62.63;102266.59;4407122;32;20020;-70
2022/04/30 02:23:35;;;;;;;;;;;;;;;7.98;62.57;102263.91;4405930;32;19991;-70
2022/04/30 02:26:04;;;;;;;;;;;;;;;7.92;62.56;102261.84;4399474;32;19994;-70
2022/04/30 02:28:31;;;;;;;;;;;;;;;7.87;62.68;102256.56;4408709;32;20347;-70
2022/04/30 02:30:57;;;;;;;;;;;;;;;7.88;62.66;102258.16;4404696;32;19993;-70
2022/04/30 02:33:22;;;;;;;;;;;;;;;7.77;62.65;102262.88;4404389;32;20031;-70
2022/04/30 02:35:48;;;;;;;;;;;;;;;7.64;63.22;102253.13;4406705;32;20309;-70
2022/04/30 02:38:14;;;;;;;;;;;;;;;7.74;62.73;102250.41;4402707;32;20383;-70
2022/04/30 02:40:40;;;;;;;;;;;;;;;7.70;63.02;102248.78;4405785;32;20363;-70
2022/04/30 02:43:08;;;;;;;;;;;;;;;7.71;62.85;102245.56;4406947;32;20513;-70
2022/04/30 02:45:35;;;;;;;;;;;;;;;7.53;63.68;102243.75;4405745;32;20438;-70
2022/04/30 02:48:02;;;;;;;;;;;;;;;7.72;63.13;102237.97;4406320;32;20015;-69
2022/04/30 02:50:31;;;;;;;;;;;;;;;7.69;63.37;102239.56;4404084;32;19965;-69
2022/04/30 02:52:58;;;;;;;;;;;;;;;7.86;62.89;102250.16;4406850;32;20254;-69
2022/04/30 02:55:24;;;;;;;;;;;;;;;7.77;62.85;102248.84;4405673;32;19991;-69
2022/04/30 03:00:40;;;;;;;;;;;;;;;7.71;62.89;102241.97;4402591;32;20008;-69
2022/04/30 03:03:07;;;;;;;;;;;;;;;7.72;63.10;102244.41;4400507;32;20049;-69
2022/04/30 03:05:35;;;;;;;;;;;;;;;7.81;62.88;102249.69;4405780;32;20013;-69
2022/04/30 03:08:04;;;;;;;;;;;;;;;7.73;63.58;102245.19;4406580;32;20298;-69
2022/04/30 03:10:29;;;;;;;;;;;;;;;7.82;62.88;102240.91;4406184;32;20099;-70
2022/04/30 03:12:55;;;;;;;;;;;;;;;7.74;63.01;102247.59;4403092;32;19949;-70
2022/04/30 03:15:22;;;;;;;;;;;;;;;7.70;63.05;102241.16;4404415;32;20032;-70
2022/04/30 03:23:20;;;;;;;;;;;;;;;7.66;63.10;102234.72;4405605;32;19962;-71
2022/04/30 03:25:45;;;;;;;;;;;;;;;7.64;63.04;102233.50;4405355;32;20315;-71
2022/04/30 03:28:11;;;;;;;;;;;;;;;7.63;62.94;102231.88;4405225;32;20000;-71
2022/04/30 03:30:36;;;;;;;;;;;;;;;7.65;63.05;102233.13;4403635;32;20020;-71
2022/04/30 03:33:02;;;;;;;;;;;;;;;7.56;63.65;102223.37;4408313;32;20050;-71
2022/04/30 03:35:28;;;;;;;;;;;;;;;7.64;63.17;102227.91;4405657;32;19986;-71
2022/04/30 03:37:54;;;;;;;;;;;;;;;7.75;62.98;102220.41;4405241;32;19993;-69
2022/04/30 03:40:21;;;;;;;;;;;;;;;7.72;63.19;102218.38;4406074;32;20487;-70
2022/04/30 03:42:48;;;;;;;;;;;;;;;7.75;63.36;102214.78;4406783;32;19996;-70
2022/04/30 03:45:14;;;;;;;;;;;;;;;7.64;63.68;102222.28;4403863;32;20422;-70
2022/04/30 03:47:40;;;;;;;;;;;;;;;7.43;64.04;102211.62;4405665;32;19961;-70
2022/04/30 03:50:07;;;;;;;;;;;;;;;7.40;63.65;102217.19;4404773;32;19988;-71
2022/04/30 03:52:33;;;;;;;;;;;;;;;7.58;63.18;102209.81;4405707;32;20343;-71
2022/04/30 03:54:58;;;;;;;;;;;;;;;7.46;63.66;102207.25;4403186;32;20009;-71
2022/04/30 03:57:25;;;;;;;;;;;;;;;7.48;63.61;102200.09;4403729;32;20043;-71
2022/04/30 03:59:51;;;;;;;;;;;;;;;7.43;63.29;102200.41;4406632;32;19998;-70
2022/04/30 04:02:18;;;;;;;;;;;;;;;7.65;62.77;102204.28;4404709;32;19953;-70
2022/04/30 04:04:44;;;;;;;;;;;;;;;7.27;63.80;102196.22;4405559;32;20315;-70
2022/04/30 04:07:11;;;;;;;;;;;;;;;7.21;64.28;102200.56;4403187;32;20058;-70
2022/04/30 04:09:37;;;;;;;;;;;;;;;7.35;64.10;102200.72;4405449;32;19972;-70
2022/04/30 04:12:03;;;;;;;;;;;;;;;7.12;64.67;102192.41;4406328;32;20447;-70
2022/04/30 04:17:45;;;;;;;;;;;;;;;7.05;64.70;102191.50;4403212;32;19989;-70
2022/04/30 04:19:59;;;;;;;;;;;;;;;7.21;64.57;102197.75;4404689;32;20350;-70
2022/04/30 04:22:25;;;;;;;;;;;;;;;7.31;64.24;102186.69;4405292;32;20002;-70
2022/04/30 04:27:35;;;;;;;;;;;;;;;7.35;64.07;102193.13;4402061;32;19983;-71
2022/04/30 04:30:01;;;;;;;;;;;;;;;7.37;63.91;102185.13;4406473;32;20024;-70
2022/04/30 04:32:27;;;;;;;;;;;;;;;7.41;63.53;102188.81;4404894;32;19968;-70
2022/04/30 04:34:53;;;;;;;;;;;;;;;7.45;63.33;102192.44;4404790;32;20004;-70
2022/04/30 04:37:19;;;;;;;;;;;;;;;7.38;63.21;102195.16;4405711;32;20407;-70
2022/04/30 04:39:45;;;;;;;;;;;;;;;7.34;63.46;102187.91;4405737;32;20303;-70
2022/04/30 04:42:10;;;;;;;;;;;;;;;7.38;63.13;102181.16;4400234;32;19995;-70
2022/04/30 04:44:36;;;;;;;;;;;;;;;7.36;63.34;102182.72;4405132;32;20372;-70
2022/04/30 04:47:02;;;;;;;;;;;;;;;7.29;62.96;102186.25;4404194;32;19965;-71
2022/04/30 04:49:28;;;;;;;;;;;;;;;7.26;63.29;102187.00;4406127;32;20017;-70
2022/04/30 04:51:54;;;;;;;;;;;;;;;7.29;63.72;102183.44;4403121;32;19950;-70
2022/04/30 04:54:19;;;;;;;;;;;;;;;7.34;63.76;102185.91;4402416;32;19953;-70
2022/04/30 04:56:45;;;;;;;;;;;;;;;7.40;63.37;102177.97;4399374;32;20272;-69
2022/04/30 04:59:13;;;;;;;;;;;;;;;7.34;63.43;102182.31;4405280;32;20321;-69
2022/04/30 05:01:39;;;;;;;;;;;;;;;7.36;63.37;102182.72;4404369;32;20019;-70
2022/04/30 05:04:05;;;;;;;;;;;;;;;7.43;63.20;102185.63;4403818;32;19993;-70
2022/04/30 05:06:31;;;;;;;;;;;;;;;7.28;63.22;102187.44;4402939;32;20060;-70
2022/04/30 05:08:57;;;;;;;;;;;;;;;7.19;63.59;102188.91;4405376;32;20037;-70
2022/04/30 05:11:23;;;;;;;;;;;;;;;7.42;62.83;102186.78;4403558;32;20000;-70
2022/04/30 05:13:49;;;;;;;;;;;;;;;7.54;62.33;102198.56;4402503;32;20405;-70
2022/04/30 05:16:14;;;;;;;;;;;;;;;7.55;62.54;102193.75;4406043;32;20008;-70
2022/04/30 05:18:40;;;;;;;;;;;;;;;7.57;61.93;102194.16;4405864;32;19965;-70
2022/04/30 05:21:05;;;;;;;;;;;;;;;7.60;62.40;102199.00;4401524;32;19957;-70
2022/04/30 05:23:31;;;;;;;;;;;;;;;7.66;62.17;102201.09;4403293;32;20056;-70
2022/04/30 05:25:57;;;;;;;;;;;;;;;7.76;62.21;102205.19;4403061;32;19957;-70
2022/04/30 05:28:23;;;;;;;;;;;;;;;7.86;62.21;102208.09;4405914;32;19972;-70
2022/04/30 05:30:49;;;;;;;;;;;;;;;7.97;62.05;102211.84;4405621;32;19993;-70
2022/04/30 05:33:14;;;;;;;;;;;;;;;8.14;61.45;102199.19;4404586;32;19950;-70
2022/04/30 05:35:40;;;;;;;;;;;;;;;8.06;61.33;102200.28;4405957;32;20307;-70
2022/04/30 05:38:06;;;;;;;;;;;;;;;8.24;60.90;102203.28;4406637;32;20091;-70
2022/04/30 05:40:31;;;;;;;;;;;;;;;8.19;61.30;102201.59;4407549;32;19957;-70
2022/04/30 05:42:57;;;;;;;;;;;;;;;8.25;61.34;102205.69;4406810;32;19968;-70
2022/04/30 05:45:22;;;;;;;;;;;;;;;8.37;61.15;102196.22;4402886;32;20048;-70
2022/04/30 05:47:48;;;;;;;;;;;;;;;8.51;60.79;102199.91;4405841;32;20400;-70
2022/04/30 05:50:13;;;;;;;;;;;;;;;8.60;60.29;102200.41;4409497;32;20322;-70
2022/04/30 05:52:39;;;;;;;;;;;;;;;8.80;59.80;102204.53;4403420;32;20358;-70
2022/04/30 05:55:05;;;;;;;;;;;;;;;8.90;59.77;102203.00;4405168;32;20391;-70
2022/04/30 05:57:31;;;;;;;;;;;;;;;9.05;59.43;102201.88;4406543;32;19965;-70
2022/04/30 05:59:57;;;;;;;;;;;;;;;9.11;58.75;102211.56;4407007;32;20034;-70
2022/04/30 06:02:23;;;;;;;;;;;;;;;9.29;58.92;102210.41;4407119;32;19981;-70
2022/04/30 06:04:49;;;;;;;;;;;;;;;9.45;58.01;102207.28;4406593;32;20103;-70
2022/04/30 06:07:15;;;;;;;;;;;;;;;9.44;58.23;102200.03;4403931;32;20027;-70
2022/04/30 06:09:40;;;;;;;;;;;;;;;9.60;57.95;102200.50;4406389;32;19962;-70
2022/04/30 06:12:06;;;;;;;;;;;;;;;9.58;57.90;102206.50;4406780;32;20015;-70
2022/04/30 06:14:32;;;;;;;;;;;;;;;9.50;58.12;102196.47;4405034;32;20009;-71
2022/04/30 06:16:58;;;;;;;;;;;;;;;9.77;57.72;102200.56;4406569;32;19989;-70
2022/04/30 06:19:24;;;;;;;;;;;;;;;9.95;57.04;102206.22;4407262;32;19958;-71
2022/04/30 06:21:50;;;;;;;;;;;;;;;10.18;56.61;102203.06;4406276;32;19993;-71
2022/04/30 06:24:16;;;;;;;;;;;;;;;10.26;56.65;102205.50;4408216;32;19957;-71
2022/04/30 06:26:43;;;;;;;;;;;;;;;10.32;56.37;102203.88;4405474;32;19993;-71
2022/04/30 06:29:09;;;;;;;;;;;;;;;10.40;56.13;102196.25;4406547;32;20008;-71
2022/04/30 06:31:35;;;;;;;;;;;;;;;10.62;55.71;102206.28;4407326;32;20416;-71
2022/04/30 06:34:00;;;;;;;;;;;;;;;10.83;54.94;102209.87;4407474;32;19981;-71
2022/04/30 06:36:26;;;;;;;;;;;;;;;11.13;54.33;102203.75;4408459;32;20049;-71
2022/04/30 06:38:52;;;;;;;;;;;;;;;11.24;54.18;102211.00;4405236;32;20339;-71
2022/04/30 06:41:19;;;;;;;;;;;;;;;11.14;54.03;102206.16;4408448;32;20008;-71
2022/04/30 06:43:45;;;;;;;;;;;;;;;11.14;53.90;102202.56;4406334;32;19961;-71
2022/04/30 06:46:11;;;;;;;;;;;;;;;11.31;53.49;102210.94;4406785;32;20381;-71
2022/04/30 06:48:37;;;;;;;;;;;;;;;11.04;54.16;102203.37;4404912;32;20758;-71
2022/04/30 06:51:03;;;;;;;;;;;;;;;11.36;52.57;102209.72;4410983;32;21053;-71
2022/04/30 06:59:09;;;;;;;;;;;;;;;11.99;51.08;102213.06;4404469;32;20001;-71
2022/04/30 07:01:44;;;;;;;;;;;;;;;12.12;50.86;102212.56;4405302;32;20013;-71
2022/04/30 07:04:11;;;;;;;;;;;;;;;12.29;49.96;102215.25;4406083;32;21042;-71
2022/04/30 07:06:36;;;;;;;;;;;;;;;12.67;48.68;102211.28;4406667;32;19989;-70
2022/04/30 07:09:03;;;;;;;;;;;;;;;12.84;48.43;102209.53;4404474;32;20052;-71
2022/04/30 07:11:28;;;;;;;;;;;;;;;13.11;48.24;102204.84;4404457;32;19992;-71
2022/04/30 07:13:54;;;;;;;;;;;;;;;13.37;47.30;102206.94;4402125;32;20023;-69
2022/04/30 07:16:20;;;;;;;;;;;;;;;13.52;46.64;102206.34;4408858;32;19993;-69
2022/04/30 07:18:45;;;;;;;;;;;;;;;13.68;45.98;102211.38;4404511;32;20045;-69
2022/04/30 07:21:11;;;;;;;;;;;;;;;13.92;45.66;102215.91;4404699;32;19966;-69
2022/04/30 07:23:37;;;;;;;;;;;;;;;13.98;44.83;102217.03;4406964;32;20028;-70
2022/04/30 07:26:03;;;;;;;;;;;;;;;14.03;44.16;102216.56;4404132;32;20001;-69
2022/04/30 07:28:33;;;;;;;;;;;;;;;14.38;43.71;102212.41;4402452;32;20367;-69
2022/04/30 07:30:59;;;;;;;;;;;;;;;14.64;43.21;102212.38;4405716;32;20449;-70
2022/04/30 07:33:24;;;;;;;;;;;;;;;14.72;42.36;102216.66;4406626;32;20007;-69
2022/04/30 07:35:50;;;;;;;;;;;;;;;14.99;41.90;102211.72;4406402;32;20002;-70
2022/04/30 07:38:15;;;;;;;;;;;;;;;15.08;41.67;102211.97;4406513;32;20021;-70
2022/04/30 07:40:41;;;;;;;;;;;;;;;15.32;41.25;102212.69;4404293;32;20440;-70
2022/04/30 07:43:07;;;;;;;;;;;;;;;15.32;40.91;102221.22;4405729;32;19958;-69
2022/04/30 07:45:32;;;;;;;;;;;;;;;15.62;40.52;102207.62;4406694;32;20162;-69
2022/04/30 07:47:58;;;;;;;;;;;;;;;15.76;40.02;102206.50;4404439;32;20021;-69
2022/04/30 07:50:26;;;;;;;;;;;;;;;15.99;39.32;102207.19;4403763;32;20408;-70
2022/04/30 07:52:51;;;;;;;;;;;;;;;16.07;38.64;102210.66;4405181;32;20318;-69
2022/04/30 07:55:17;;;;;;;;;;;;;;;16.08;38.88;102215.12;4404577;32;19991;-70
2022/04/30 07:57:42;;;;;;;;;;;;;;;16.23;38.12;102204.22;4405758;32;19958;-69
2022/04/30 08:00:08;;;;;;;;;;;;;;;16.38;38.16;102202.63;4402280;32;20530;-70
2022/04/30 08:02:34;;;;;;;;;;;;;;;16.65;38.13;102200.34;4407163;32;20385;-69
2022/04/30 08:05:01;;;;;;;;;;;;;;;16.74;37.79;102198.47;4403263;32;20447;-69
2022/04/30 08:07:27;;;;;;;;;;;;;;;16.96;36.89;102195.84;4403912;32;20420;-69
2022/04/30 08:09:52;;;;;;;;;;;;;;;17.17;36.13;102187.53;4405032;32;19964;-71
2022/04/30 08:12:18;;;;;;;;;;;;;;;17.40;35.71;102195.00;4402334;32;19965;-70
2022/04/30 08:14:44;;;;;;;;;;;;;;;17.67;35.59;102186.88;4404715;32;19950;-69
2022/04/30 08:17:13;;;;;;;;;;;;;;;17.58;33.14;102187.56;4405847;32;19998;-70
2022/04/30 08:19:38;;;;;;;;;;;;;;;17.58;34.17;102183.94;4406644;32;20005;-70
2022/04/30 08:22:04;;;;;;;;;;;;;;;17.84;33.79;102177.81;4403343;32;19953;-70
2022/04/30 08:24:30;;;;;;;;;;;;;;;18.16;33.49;102176.00;4404659;32;20007;-70
2022/04/30 08:26:56;;;;;;;;;;;;;;;18.41;32.74;102173.94;4401960;32;19998;-70
2022/04/30 08:29:23;;;;;;;;;;;;;;;18.61;32.57;102174.50;4405618;32;20036;-70
2022/04/30 08:31:48;;;;;;;;;;;;;;;19.08;31.89;102180.13;4401798;32;19988;-70
2022/04/30 08:34:14;;;;;;;;;;;;;;;19.02;31.86;102179.94;4403310;32;19976;-70
2022/04/30 08:36:39;;;;;;;;;;;;;;;19.28;31.63;102174.97;4405127;32;20008;-70
2022/04/30 08:39:05;;;;;;;;;;;;;;;19.55;31.23;102173.06;4404518;32;20001;-70
2022/04/30 08:41:30;;;;;;;;;;;;;;;19.77;30.85;102175.91;4405960;32;19954;-70
2022/04/30 08:43:56;;;;;;;;;;;;;;;20.25;30.19;102180.91;4401863;32;20339;-70
2022/04/30 08:46:21;;;;;;;;;;;;;;;20.49;29.61;102172.59;4404200;32;20334;-70
2022/04/30 08:48:47;;;;;;;;;;;;;;;20.87;29.07;102170.09;4403127;32;20339;-69
2022/04/30 08:51:16;;;;;;;;;;;;;;;21.09;28.66;102170.78;4405651;32;19999;-69
2022/04/30 08:53:42;;;;;;;;;;;;;;;21.21;28.01;102164.88;4402781;32;19997;-70
2022/04/30 08:56:08;;;;;;;;;;;;;;;21.15;27.91;102166.00;4403704;32;20360;-69
2022/04/30 08:58:34;;;;;;;;;;;;;;;21.21;27.66;102167.75;4403877;32;20023;-71
2022/04/30 09:01:01;;;;;;;;;;;;;;;21.50;27.61;102165.16;4404463;32;19989;-70
2022/04/30 09:03:26;;;;;;;;;;;;;;;21.53;27.45;102157.66;4402492;32;20005;-70
2022/04/30 09:05:52;;;;;;;;;;;;;;;21.82;26.98;102154.28;4402420;32;19991;-70
2022/04/30 09:08:17;;;;;;;;;;;;;;;21.81;26.25;102164.94;4400611;32;20056;-70
2022/04/30 09:10:43;;;;;;;;;;;;;;;21.99;26.12;102159.16;4406529;32;21431;-70
2022/04/30 09:15:46;;;;;;;;;;;;;;;22.23;25.81;102156.31;3957217;31;15742966;-71
2022/04/30 09:18:12;;;;;;;;;;;;;;;22.23;25.81;102156.31;4437768;32;21206;-71
2022/04/30 09:20:42;;;;;;;;;;;;;;;21.87;26.18;102145.81;4439757;32;19969;-71
2022/04/30 09:23:08;;;;;;;;;;;;;;;21.62;26.42;102149.84;4436153;32;19968;-71
2022/04/30 09:25:34;;;;;;;;;;;;;;;21.17;27.19;102146.28;4436911;32;20005;-71
2022/04/30 09:27:59;;;;;;;;;;;;;;;20.96;27.29;102145.16;4440329;32;20082;-71
2022/04/30 09:30:29;;;;;;;;;;;;;;;21.04;27.42;102140.72;4437829;32;20371;-71
2022/04/30 09:33:02;;;;;;;;;;;;;;;20.70;27.80;102145.91;4439479;32;20085;-71
2022/04/30 09:38:14;;;;;;;;;;;;;;;20.80;27.82;102136.84;4440177;32;20020;-71
2022/04/30 09:40:39;;;;;;;;;;;;;;;20.45;28.08;102126.97;4439580;32;19992;-71
2022/04/30 09:43:14;;;;;;;;;;;;;;;20.21;28.48;102137.38;4441106;32;19997;-71
2022/04/30 09:45:40;;;;;;;;;;;;;;;20.02;28.60;102132.03;4432695;32;20298;-73
2022/04/30 09:53:56;;;;;;;;;;;;;;;20.26;28.67;102133.91;4434425;32;19952;-71
2022/04/30 09:54:10;;;;;;;;;;;;;;;20.83;27.58;102127.31;4436647;32;20351;-71
2022/04/30 09:56:31;;;;;;;;;;;;;;;21.07;27.33;102134.03;4437842;32;19975;-71
2022/04/30 09:58:57;;;;;;;;;;;;;;;20.94;27.10;102127.69;4439511;32;20317;-71
2022/04/30 10:01:25;;;;;;;;;;;;;;;21.06;26.76;102125.91;4441426;32;20386;-71
2022/04/30 10:03:51;;;;;;;;;;;;;;;21.44;26.32;102121.25;4437806;32;20056;-71
2022/04/30 10:06:18;;;;;;;;;;;;;;;21.59;26.28;102129.94;4438252;32;20415;-71
2022/04/30 10:08:44;;;;;;;;;;;;;;;21.49;26.52;102123.47;4437902;32;20008;-71
2022/04/30 10:11:14;;;;;;;;;;;;;;;22.09;25.89;102116.91;4437205;32;20363;-71
2022/04/30 10:13:47;;;;;;;;;;;;;;;22.73;25.36;102113.16;4438343;32;19965;-71
2022/04/30 10:16:19;;;;;;;;;;;;;;;22.72;24.96;102102.16;4439794;32;19976;-70
2022/04/30 10:18:50;;;;;;;;;;;;;;;22.79;24.76;102102.59;4437763;32;21268;-70
2022/04/30 10:21:17;;;;;;;;;;;;;;;23.12;24.67;102096.69;4438136;32;20017;-70
2022/04/30 10:23:43;;;;;;;;;;;;;;;22.97;24.79;102098.75;4438919;32;20020;-70
2022/04/30 10:26:08;;;;;;;;;;;;;;;23.59;24.16;102093.66;4431231;32;20054;-70
2022/04/30 10:28:34;;;;;;;;;;;;;;;23.86;23.84;102092.53;4427395;32;20008;-71
2022/04/30 10:33:46;;;;;;;;;;;;;;;24.74;23.06;102088.91;3949180;32;15722434;-71
2022/04/30 10:36:12;;;;;;;;;;;;;;;24.74;23.06;102088.91;4406181;32;19993;-71
2022/04/30 10:38:38;;;;;;;;;;;;;;;24.52;23.24;102082.84;4433386;32;21149;-71
2022/04/30 10:41:05;;;;;;;;;;;;;;;24.95;22.88;102078.91;4434119;32;19953;-71
2022/04/30 10:43:35;;;;;;;;;;;;;;;24.82;22.74;102078.50;4431799;32;19972;-71
2022/04/30 10:46:03;;;;;;;;;;;;;;;25.18;22.26;102077.06;4431261;32;20040;-71
2022/04/30 10:48:29;;;;;;;;;;;;;;;24.69;22.83;102066.56;4432598;32;20004;-71
2022/04/30 10:51:14;;;;;;;;;;;;;;;24.93;22.84;102063.44;4431200;32;20016;-71
2022/04/30 10:53:42;;;;;;;;;;;;;;;24.81;23.07;102056.78;4431994;32;20052;-71
2022/04/30 10:56:08;;;;;;;;;;;;;;;24.33;23.64;102064.25;4431401;32;21135;-71
2022/04/30 10:58:36;;;;;;;;;;;;;;;24.64;23.28;102057.84;4430137;32;19987;-71
2022/04/30 11:01:17;;;;;;;;;;;;;;;25.11;23.04;102063.09;4430207;32;20439;-71
2022/04/30 11:03:44;;;;;;;;;;;;;;;25.88;21.84;102058.03;4431201;32;19996;-70
2022/04/30 11:06:11;;;;;;;;;;;;;;;26.09;21.42;102044.31;4428248;32;19998;-70
2022/04/30 11:08:38;;;;;;;;;;;;;;;25.92;21.67;102049.94;4431890;32;19968;-70
2022/04/30 11:11:03;;;;;;;;;;;;;;;26.70;21.17;102048.28;4431521;32;19957;-70
2022/04/30 11:13:29;;;;;;;;;;;;;;;26.57;21.44;102045.06;4431175;32;20527;-71
2022/04/30 11:15:58;;;;;;;;;;;;;;;26.23;22.23;102044.09;4430506;32;20379;-70
2022/04/30 11:18:26;;;;;;;;;;;;;;;26.25;22.12;102040.72;4433325;32;20004;-70
2022/04/30 11:21:06;;;;;;;;;;;;;;;26.14;22.21;102026.25;4432935;32;20427;-70
2022/04/30 11:23:32;;;;;;;;;;;;;;;26.82;21.77;102029.69;4431659;32;20052;-70
2022/04/30 11:25:59;;;;;;;;;;;;;;;27.28;21.18;102020.56;4420392;32;20100;-70
2022/04/30 11:28:28;;;;;;;;;;;;;;;27.30;21.30;102012.94;4429576;32;19990;-71
2022/04/30 11:30:57;;;;;;;;;;;;;;;27.63;20.88;102009.25;4430215;32;20339;-71
2022/04/30 11:33:30;;;;;;;;;;;;;;;27.15;21.43;102001.62;4429696;32;20520;-71
2022/04/30 11:35:56;;;;;;;;;;;;;;;26.86;21.78;102007.91;4430704;32;19983;-71
2022/04/30 11:38:22;;;;;;;;;;;;;;;26.32;22.20;102008.50;4431146;32;20000;-71
2022/04/30 11:40:47;;;;;;;;;;;;;;;25.51;23.13;101999.56;4419442;32;19946;-71
2022/04/30 11:43:13;;;;;;;;;;;;;;;25.14;23.45;101990.06;4429591;32;20513;-71
2022/04/30 11:45:39;;;;;;;;;;;;;;;25.99;22.51;101991.81;4421973;32;20306;-71
2022/04/30 11:48:05;;;;;;;;;;;;;;;26.93;21.61;101983.47;4420098;32;20523;-71
2022/04/30 11:50:30;;;;;;;;;;;;;;;27.49;21.11;101981.41;4419010;32;20060;-71
2022/04/30 11:52:56;;;;;;;;;;;;;;;28.23;20.59;101974.41;4419715;32;20328;-71
2022/04/30 11:55:23;;;;;;;;;;;;;;;27.94;20.53;101971.34;4419168;32;19966;-71
2022/04/30 11:57:49;;;;;;;;;;;;;;;27.54;20.95;101966.94;4405954;32;20303;-71
2022/04/30 12:00:15;;;;;;;;;;;;;;;27.03;21.35;101965.34;4419292;32;19964;-71
2022/04/30 12:02:42;;;;;;;;;;;;;;;26.05;22.63;101954.31;4420784;32;20131;-72
2022/04/30 12:05:07;;;;;;;;;;;;;;;25.94;22.76;101949.25;4420095;32;19953;-71
2022/04/30 12:07:35;;;;;;;;;;;;;;;25.43;23.03;101954.44;4419022;32;20045;-71
2022/04/30 12:10:01;;;;;;;;;;;;;;;24.73;23.65;101942.56;4420673;32;19977;-71
2022/04/30 12:12:28;;;;;;;;;;;;;;;24.18;24.83;101933.28;4420038;32;20305;-71
2022/04/30 12:14:55;;;;;;;;;;;;;;;24.00;25.34;101933.56;4421344;32;19975;-71
2022/04/30 12:17:28;;;;;;;;;;;;;;;24.22;25.06;101933.84;4419479;32;20001;-71
2022/04/30 12:26:03;;;;;;;;;;;;;;;23.93;25.00;101931.87;4418055;32;20498;-71
2022/04/30 12:28:30;;;;;;;;;;;;;;;24.15;24.83;101923.59;4419043;32;19992;-71
2022/04/30 12:30:56;;;;;;;;;;;;;;;24.98;24.02;101918.69;4419930;32;20002;-71
2022/04/30 12:33:22;;;;;;;;;;;;;;;24.90;23.69;101921.25;4414840;32;19954;-70
2022/04/30 12:35:55;;;;;;;;;;;;;;;24.72;24.26;101912.16;4419077;32;20602;-70
2022/04/30 12:38:21;;;;;;;;;;;;;;;24.72;24.39;101912.97;4418196;32;19972;-70
2022/04/30 12:40:47;;;;;;;;;;;;;;;24.19;24.73;101917.59;4421306;32;19946;-70
2022/04/30 12:43:13;;;;;;;;;;;;;;;24.45;23.99;101906.91;4418150;32;19949;-70
2022/04/30 12:45:41;;;;;;;;;;;;;;;24.30;24.14;101909.88;4417900;32;20314;-70
2022/04/30 12:48:09;;;;;;;;;;;;;;;23.73;24.24;101903.12;4418572;32;20008;-71
2022/04/30 12:50:36;;;;;;;;;;;;;;;23.72;24.75;101903.63;4419790;32;20241;-71
2022/04/30 12:53:02;;;;;;;;;;;;;;;24.26;24.23;101899.88;4419488;32;20693;-71
2022/04/30 12:55:29;;;;;;;;;;;;;;;23.36;25.58;101904.97;4418275;32;19969;-71
2022/04/30 12:57:55;;;;;;;;;;;;;;;23.49;25.65;101893.91;4420399;32;19957;-71
2022/04/30 13:00:21;;;;;;;;;;;;;;;23.34;25.45;101893.97;4416912;32;20447;-70
2022/04/30 13:02:46;;;;;;;;;;;;;;;23.77;24.42;101886.44;4420620;32;19965;-70
2022/04/30 13:05:13;;;;;;;;;;;;;;;24.26;22.88;101891.25;4418180;32;20941;-70
2022/04/30 13:07:39;;;;;;;;;;;;;;;25.37;20.45;101881.56;4420053;32;19996;-70
2022/04/30 13:15:36;;;;;;;;;;;;;;;27.13;20.52;101870.53;4416907;32;20053;-70
2022/04/30 13:18:03;;;;;;;;;;;;;;;27.46;20.31;101861.81;4420355;32;19961;-70
2022/04/30 13:20:29;;;;;;;;;;;;;;;27.82;20.23;101871.41;4419005;32;20023;-71
2022/04/30 13:22:56;;;;;;;;;;;;;;;28.67;19.39;101874.91;4418373;32;20013;-71
2022/04/30 13:25:22;;;;;;;;;;;;;;;29.32;18.12;101857.50;4420762;32;19973;-71
2022/04/30 13:27:48;;;;;;;;;;;;;;;30.15;17.63;101858.03;4419817;32;20007;-71